Time;durP1;ratioP1;P1;durP2;ratioP2;P2;SDS_P1;SDS_P2;PMS_P1;PMS_P2;Temp;Humidity;BMP_temperature;BMP_pressure;BME280_temperature;BME280_humidity;BME280_pressure;Samples;Min_cycle;Max_cycle;Signal;HPM_P1;HPM_P2
2024/03/16 00:01:51;;;;;;;;;;;17.80;62.60;;;;;;5037991;28;1448;-73
2024/03/16 00:04:17;;;;;;;;;;;17.80;61.90;;;;;;5029892;28;1910;-73
2024/03/16 00:06:43;;;;;;;;;;;17.90;62.00;;;;;;5029395;28;1312;-74
2024/03/16 00:09:08;;;;;;;;;;;17.90;62.00;;;;;;5037009;28;1620;-74
2024/03/16 00:11:34;;;;;;;;;;;17.80;61.90;;;;;;5038925;28;1332;-74
2024/03/16 00:14:00;;;;;;;;;;;17.80;62.00;;;;;;5037474;28;1363;-74
2024/03/16 00:16:26;;;;;;;;;;;17.80;61.90;;;;;;5036705;28;1537;-74
2024/03/16 00:18:51;;;;;;;;;;;17.80;61.90;;;;;;5038907;28;1469;-74
2024/03/16 00:21:17;;;;;;;;;;;17.80;62.00;;;;;;5040969;28;1457;-73
2024/03/16 00:23:43;;;;;;;;;;;17.80;62.00;;;;;;5072068;28;1538;-73
2024/03/16 00:26:08;;;;;;;;;;;17.80;62.00;;;;;;5071265;28;1902;-74
2024/03/16 00:28:34;;;;;;;;;;;17.80;62.00;;;;;;5035577;28;1263;-73
2024/03/16 00:30:59;;;;;;;;;;;17.80;62.00;;;;;;5038044;28;1456;-73
2024/03/16 00:33:25;;;;;;;;;;;17.80;62.00;;;;;;5038685;28;1454;-73
2024/03/16 00:35:50;;;;;;;;;;;17.80;62.00;;;;;;5037906;28;1519;-74
2024/03/16 00:38:17;;;;;;;;;;;17.80;62.00;;;;;;5041447;28;1341;-77
2024/03/16 00:40:42;;;;;;;;;;;17.80;62.10;;;;;;5042001;28;1613;-72
2024/03/16 00:43:08;;;;;;;;;;;17.80;62.00;;;;;;5038871;28;1443;-74
2024/03/16 00:45:34;;;;;;;;;;;17.80;62.10;;;;;;5036103;28;1898;-75
2024/03/16 00:48:04;;;;;;;;;;;17.80;62.10;;;;;;5035115;28;1462;-74
2024/03/16 00:50:31;;;;;;;;;;;17.80;62.10;;;;;;5037396;28;1476;-74
2024/03/16 00:52:57;;;;;;;;;;;17.80;62.10;;;;;;5036683;28;1469;-74
2024/03/16 00:55:22;;;;;;;;;;;17.80;62.10;;;;;;5039071;28;1440;-74
2024/03/16 00:57:47;;;;;;;;;;;17.80;62.10;;;;;;5041119;28;1281;-74
2024/03/16 01:00:14;;;;;;;;;;;17.80;62.10;;;;;;5043934;28;1388;-73
2024/03/16 01:02:40;;;;;;;;;;;17.80;62.10;;;;;;5074210;28;1043;-73
2024/03/16 01:05:06;;;;;;;;;;;17.80;62.20;;;;;;5038856;28;1906;-73
2024/03/16 01:07:32;;;;;;;;;;;17.80;62.20;;;;;;5044429;28;1448;-73
2024/03/16 01:09:57;;;;;;;;;;;17.80;62.20;;;;;;5049893;28;884;-73
2024/03/16 01:12:23;;;;;;;;;;;17.80;62.20;;;;;;5041955;28;923;-73
2024/03/16 01:14:48;;;;;;;;;;;17.80;62.90;;;;;;5044609;28;1284;-72
2024/03/16 01:17:15;;;;;;;;;;;17.80;62.20;;;;;;5043356;28;1264;-72
2024/03/16 01:19:41;;;;;;;;;;;17.80;62.20;;;;;;5042351;28;1311;-72
2024/03/16 01:22:07;;;;;;;;;;;17.80;62.20;;;;;;5040327;28;1499;-72
2024/03/16 01:24:32;;;;;;;;;;;17.80;62.20;;;;;;5049312;28;1928;-73
2024/03/16 01:26:58;;;;;;;;;;;17.80;62.20;;;;;;5042985;28;1536;-73
2024/03/16 01:29:23;;;;;;;;;;;17.80;62.20;;;;;;5025694;28;1323;-73
2024/03/16 01:31:49;;;;;;;;;;;17.80;62.20;;;;;;5024818;28;1490;-72
2024/03/16 01:34:14;;;;;;;;;;;17.80;62.20;;;;;;5044893;28;1485;-72
2024/03/16 01:36:40;;;;;;;;;;;17.80;62.20;;;;;;5042403;28;1615;-73
2024/03/16 01:39:05;;;;;;;;;;;17.80;62.20;;;;;;5041926;28;1363;-73
2024/03/16 01:41:31;;;;;;;;;;;17.80;62.30;;;;;;5041633;28;1664;-73
2024/03/16 01:44:10;;;;;;;;;;;17.80;62.20;;;;;;5039217;28;1472;-71
2024/03/16 01:46:35;;;;;;;;;;;17.80;62.30;;;;;;5042485;28;1977;-71
2024/03/16 01:49:01;;;;;;;;;;;17.80;62.30;;;;;;5040036;28;1439;-72
2024/03/16 01:51:29;;;;;;;;;;;17.80;62.30;;;;;;5038437;28;1551;-74
2024/03/16 01:53:55;;;;;;;;;;;17.80;62.30;;;;;;5042760;28;1503;-73
2024/03/16 01:56:20;;;;;;;;;;;17.80;62.30;;;;;;5040496;28;1267;-73
2024/03/16 01:58:48;;;;;;;;;;;17.80;62.30;;;;;;5039417;28;1374;-74
2024/03/16 02:01:14;;;;;;;;;;;17.80;62.30;;;;;;5036784;28;1476;-73
2024/03/16 02:03:40;;;;;;;;;;;17.70;62.20;;;;;;5025493;28;1375;-73
2024/03/16 02:06:06;;;;;;;;;;;17.80;62.30;;;;;;5023842;28;1902;-73
2024/03/16 02:08:31;;;;;;;;;;;17.70;62.20;;;;;;5040692;28;1444;-72
2024/03/16 02:10:57;;;;;;;;;;;17.80;63.10;;;;;;5073314;28;1492;-73
2024/03/16 02:13:22;;;;;;;;;;;17.80;62.40;;;;;;5038142;28;1574;-74
2024/03/16 02:15:48;;;;;;;;;;;17.70;62.30;;;;;;5039824;28;1670;-73
2024/03/16 02:18:13;;;;;;;;;;;17.80;62.30;;;;;;5039762;28;1443;-72
2024/03/16 02:20:39;;;;;;;;;;;17.70;62.30;;;;;;5039386;28;1557;-73
2024/03/16 02:23:04;;;;;;;;;;;17.80;62.40;;;;;;5048653;28;1457;-71
2024/03/16 02:25:30;;;;;;;;;;;17.70;62.60;;;;;;5039986;28;1898;-72
2024/03/16 02:27:56;;;;;;;;;;;17.70;62.40;;;;;;5041866;28;1533;-73
2024/03/16 02:30:21;;;;;;;;;;;17.70;62.30;;;;;;5042554;28;1604;-72
2024/03/16 02:32:47;;;;;;;;;;;17.80;62.40;;;;;;5039143;28;1328;-73
2024/03/16 02:35:12;;;;;;;;;;;17.70;62.30;;;;;;5042876;28;1655;-73
2024/03/16 02:37:38;;;;;;;;;;;17.70;62.30;;;;;;5043925;28;1318;-72
2024/03/16 02:40:03;;;;;;;;;;;17.70;62.30;;;;;;5043684;28;1337;-73
2024/03/16 02:42:29;;;;;;;;;;;17.70;62.30;;;;;;5041779;28;1627;-73
2024/03/16 02:44:55;;;;;;;;;;;17.70;62.40;;;;;;5040946;28;1961;-73
2024/03/16 02:47:20;;;;;;;;;;;17.70;62.40;;;;;;5073087;28;855;-74
2024/03/16 02:49:49;;;;;;;;;;;17.70;62.40;;;;;;5041998;28;1129;-73
2024/03/16 02:52:14;;;;;;;;;;;17.70;62.40;;;;;;5043359;28;1844;-73
2024/03/16 02:54:40;;;;;;;;;;;17.70;62.40;;;;;;5040962;28;1273;-73
2024/03/16 02:57:05;;;;;;;;;;;17.70;62.40;;;;;;5038694;28;1675;-73
2024/03/16 02:59:31;;;;;;;;;;;17.70;62.40;;;;;;5038059;28;1414;-74
2024/03/16 03:01:57;;;;;;;;;;;17.70;62.40;;;;;;5032379;28;1281;-74
2024/03/16 03:04:23;;;;;;;;;;;17.70;62.40;;;;;;5042362;28;1898;-75
2024/03/16 03:06:48;;;;;;;;;;;17.70;62.40;;;;;;5042001;28;1545;-73
2024/03/16 03:09:14;;;;;;;;;;;17.70;62.40;;;;;;5042313;28;1408;-71
2024/03/16 03:11:39;;;;;;;;;;;17.70;62.40;;;;;;5041143;28;1460;-74
2024/03/16 03:14:06;;;;;;;;;;;17.70;62.40;;;;;;5041888;28;1565;-75
2024/03/16 03:16:31;;;;;;;;;;;17.70;62.40;;;;;;5043787;28;1479;-72
2024/03/16 03:18:57;;;;;;;;;;;17.70;62.40;;;;;;5041186;28;1659;-73
2024/03/16 03:21:23;;;;;;;;;;;17.70;62.40;;;;;;5040572;28;1310;-73
2024/03/16 03:23:48;;;;;;;;;;;17.70;62.40;;;;;;5039855;28;1375;-73
2024/03/16 03:26:14;;;;;;;;;;;17.70;62.40;;;;;;5039870;28;1894;-74
2024/03/16 03:28:39;;;;;;;;;;;17.70;62.40;;;;;;5037849;28;1342;-74
2024/03/16 03:31:06;;;;;;;;;;;17.70;62.50;;;;;;5038127;28;1329;-73
2024/03/16 03:33:32;;;;;;;;;;;17.70;62.40;;;;;;5039331;28;1481;-74
2024/03/16 03:35:57;;;;;;;;;;;17.70;62.40;;;;;;5039358;28;1319;-74
2024/03/16 03:38:23;;;;;;;;;;;17.70;62.40;;;;;;5040153;28;1499;-74
2024/03/16 03:40:48;;;;;;;;;;;17.70;62.50;;;;;;5045690;28;1491;-74
2024/03/16 03:43:17;;;;;;;;;;;17.70;62.50;;;;;;5040722;28;1730;-74
2024/03/16 03:50:49;;;;;;;;;;;17.70;62.50;;;;;;5037910;28;1474;-74
2024/03/16 03:53:18;;;;;;;;;;;17.70;62.50;;;;;;5038743;28;1538;-74
2024/03/16 03:55:44;;;;;;;;;;;17.70;63.20;;;;;;5038977;28;1459;-74
2024/03/16 03:58:09;;;;;;;;;;;17.70;62.50;;;;;;5037153;28;1438;-74
2024/03/16 04:00:34;;;;;;;;;;;17.70;62.50;;;;;;5037332;28;1470;-74
2024/03/16 04:03:00;;;;;;;;;;;17.70;62.50;;;;;;5039136;28;1551;-74
2024/03/16 04:05:26;;;;;;;;;;;17.70;62.50;;;;;;5039358;28;1977;-74
2024/03/16 04:07:52;;;;;;;;;;;17.70;62.50;;;;;;5036707;28;1534;-74
2024/03/16 04:10:18;;;;;;;;;;;17.70;63.30;;;;;;5041735;28;946;-74
2024/03/16 04:12:47;;;;;;;;;;;17.70;62.50;;;;;;5024113;28;1353;-73
2024/03/16 04:15:12;;;;;;;;;;;17.70;62.60;;;;;;5046961;28;1522;-74
2024/03/16 04:17:38;;;;;;;;;;;17.70;62.60;;;;;;5037934;28;851;-74
2024/03/16 04:20:09;;;;;;;;;;;17.70;62.50;;;;;;5039467;28;1144;-74
2024/03/16 04:22:35;;;;;;;;;;;17.70;62.60;;;;;;5039156;28;1253;-74
2024/03/16 04:25:03;;;;;;;;;;;17.70;62.60;;;;;;5056931;28;1901;-74
2024/03/16 04:27:31;;;;;;;;;;;17.70;62.60;;;;;;5038263;28;1544;-74
2024/03/16 04:29:58;;;;;;;;;;;17.70;62.60;;;;;;5047873;28;1585;-74
2024/03/16 04:32:26;;;;;;;;;;;17.70;62.60;;;;;;5041643;28;1459;-74
2024/03/16 04:34:52;;;;;;;;;;;17.70;63.00;;;;;;5042507;28;1434;-74
2024/03/16 04:37:17;;;;;;;;;;;17.70;62.60;;;;;;5042402;28;1338;-74
2024/03/16 04:39:43;;;;;;;;;;;17.70;62.60;;;;;;5041057;28;1268;-74
2024/03/16 04:42:09;;;;;;;;;;;17.70;62.60;;;;;;5050203;28;1474;-74
2024/03/16 04:44:34;;;;;;;;;;;17.70;62.60;;;;;;5074249;28;1930;-74
2024/03/16 04:47:00;;;;;;;;;;;17.70;62.60;;;;;;5041436;28;1350;-74
2024/03/16 04:49:25;;;;;;;;;;;17.70;62.60;;;;;;5041198;28;1516;-74
2024/03/16 04:51:51;;;;;;;;;;;17.70;62.60;;;;;;5041908;28;1477;-74
2024/03/16 04:54:16;;;;;;;;;;;17.70;62.60;;;;;;5040463;28;1703;-73
2024/03/16 04:56:42;;;;;;;;;;;17.70;62.60;;;;;;5041907;28;1366;-74
2024/03/16 04:59:07;;;;;;;;;;;17.70;62.60;;;;;;5041638;28;1457;-74
2024/03/16 05:01:33;;;;;;;;;;;17.70;62.60;;;;;;5041852;28;1343;-74
2024/03/16 05:03:58;;;;;;;;;;;17.70;62.70;;;;;;5041287;28;1438;-74
2024/03/16 05:06:24;;;;;;;;;;;17.70;62.60;;;;;;5047946;28;1937;-74
2024/03/16 05:08:49;;;;;;;;;;;17.70;62.60;;;;;;5031735;28;1289;-74
2024/03/16 05:11:15;;;;;;;;;;;17.70;62.60;;;;;;5043478;28;1483;-74
2024/03/16 05:13:40;;;;;;;;;;;17.70;62.60;;;;;;5041051;28;1363;-74
2024/03/16 05:16:07;;;;;;;;;;;17.70;62.60;;;;;;5041700;28;1585;-73
2024/03/16 05:18:33;;;;;;;;;;;17.70;62.50;;;;;;5038191;28;1516;-74
2024/03/16 05:20:58;;;;;;;;;;;17.70;62.40;;;;;;5041802;28;1477;-73
2024/03/16 05:23:24;;;;;;;;;;;17.80;62.40;;;;;;5043100;28;1467;-74
2024/03/16 05:25:49;;;;;;;;;;;17.80;62.30;;;;;;5041928;28;1969;-74
2024/03/16 05:28:16;;;;;;;;;;;17.80;62.20;;;;;;5038897;28;1661;-74
2024/03/16 05:30:42;;;;;;;;;;;17.80;62.10;;;;;;5041538;28;1477;-73
2024/03/16 05:33:07;;;;;;;;;;;17.90;62.00;;;;;;5042559;28;1432;-73
2024/03/16 05:35:33;;;;;;;;;;;17.90;62.00;;;;;;5040884;28;1327;-74
2024/03/16 05:37:58;;;;;;;;;;;17.90;61.90;;;;;;5041269;28;1392;-73
2024/03/16 05:40:24;;;;;;;;;;;17.90;61.80;;;;;;5040182;28;1274;-74
2024/03/16 05:42:50;;;;;;;;;;;18.00;61.80;;;;;;5040012;28;1585;-74
2024/03/16 05:45:15;;;;;;;;;;;18.00;61.70;;;;;;5042613;28;1958;-74
2024/03/16 05:47:41;;;;;;;;;;;18.00;61.60;;;;;;5039997;28;1523;-73
2024/03/16 05:50:06;;;;;;;;;;;18.00;61.60;;;;;;5040322;28;1209;-74
2024/03/16 05:52:33;;;;;;;;;;;18.00;61.50;;;;;;5039331;28;1472;-74
2024/03/16 05:54:59;;;;;;;;;;;18.00;61.40;;;;;;5040464;28;1229;-74
2024/03/16 05:57:24;;;;;;;;;;;18.10;61.40;;;;;;5044848;28;1172;-74
2024/03/16 05:59:50;;;;;;;;;;;18.00;61.30;;;;;;5042882;28;1509;-74
2024/03/16 06:02:15;;;;;;;;;;;18.10;61.30;;;;;;5041101;28;1315;-74
2024/03/16 06:04:41;;;;;;;;;;;18.10;61.30;;;;;;5039203;28;1902;-74
2024/03/16 06:07:06;;;;;;;;;;;18.10;61.30;;;;;;5042638;28;1306;-74
2024/03/16 06:09:32;;;;;;;;;;;18.10;61.20;;;;;;5027144;28;1473;-73
2024/03/16 06:11:57;;;;;;;;;;;18.10;61.20;;;;;;5040842;28;1476;-74
2024/03/16 06:14:23;;;;;;;;;;;18.10;61.10;;;;;;5039763;28;1346;-74
2024/03/16 06:16:48;;;;;;;;;;;18.10;61.10;;;;;;5041303;28;1504;-73
2024/03/16 06:19:14;;;;;;;;;;;18.10;61.10;;;;;;5041730;28;1590;-73
2024/03/16 06:21:39;;;;;;;;;;;18.10;61.10;;;;;;5043220;28;1709;-73
2024/03/16 06:24:05;;;;;;;;;;;18.10;61.00;;;;;;5045376;28;1332;-71
2024/03/16 06:26:36;;;;;;;;;;;18.10;61.00;;;;;;5040740;28;1985;-73
2024/03/16 06:29:05;;;;;;;;;;;18.10;61.00;;;;;;5039188;28;1935;-73
2024/03/16 06:31:35;;;;;;;;;;;18.20;61.00;;;;;;5038500;28;1265;-71
2024/03/16 06:34:07;;;;;;;;;;;18.20;61.00;;;;;;5038240;28;1465;-71
2024/03/16 06:36:33;;;;;;;;;;;18.20;61.00;;;;;;5040875;28;1389;-72
2024/03/16 06:38:59;;;;;;;;;;;18.20;61.00;;;;;;5038559;28;1334;-71
2024/03/16 06:41:24;;;;;;;;;;;18.20;60.90;;;;;;5068728;28;1167;-70
2024/03/16 06:43:50;;;;;;;;;;;18.20;60.90;;;;;;5037404;28;1335;-71
2024/03/16 06:46:17;;;;;;;;;;;18.20;60.90;;;;;;5039882;28;1955;-71
2024/03/16 06:48:43;;;;;;;;;;;18.20;60.90;;;;;;5037031;28;1326;-72
2024/03/16 06:51:09;;;;;;;;;;;18.20;60.90;;;;;;5038999;28;970;-71
2024/03/16 06:53:34;;;;;;;;;;;18.20;60.90;;;;;;5040048;28;1318;-72
2024/03/16 06:56:01;;;;;;;;;;;18.20;60.90;;;;;;5037464;28;1350;-71
2024/03/16 06:58:26;;;;;;;;;;;18.20;60.90;;;;;;5042194;28;1396;-71
2024/03/16 07:00:52;;;;;;;;;;;18.20;60.90;;;;;;5037993;28;1105;-73
2024/03/16 07:03:19;;;;;;;;;;;18.20;60.80;;;;;;5042368;28;1260;-73
2024/03/16 07:05:44;;;;;;;;;;;18.20;60.90;;;;;;5039142;28;1999;-73
2024/03/16 07:08:12;;;;;;;;;;;18.20;60.90;;;;;;5041638;28;1318;-72
2024/03/16 07:10:38;;;;;;;;;;;18.20;60.90;;;;;;5043240;28;1592;-75
2024/03/16 07:13:03;;;;;;;;;;;18.20;60.90;;;;;;5036551;28;2062;-74
2024/03/16 07:15:31;;;;;;;;;;;18.20;60.90;;;;;;5041491;28;1165;-73
2024/03/16 07:17:56;;;;;;;;;;;18.20;61.00;;;;;;5045097;28;887;-73
2024/03/16 07:20:22;;;;;;;;;;;18.20;61.00;;;;;;5044093;28;1923;-73
2024/03/16 07:22:47;;;;;;;;;;;18.20;61.00;;;;;;5057034;28;1382;-73
2024/03/16 07:25:14;;;;;;;;;;;18.20;61.00;;;;;;5040218;28;1968;-74
2024/03/16 07:27:40;;;;;;;;;;;18.20;61.00;;;;;;5039711;28;1232;-72
2024/03/16 07:30:06;;;;;;;;;;;18.10;61.00;;;;;;5039548;28;1214;-73
2024/03/16 07:32:32;;;;;;;;;;;18.20;61.10;;;;;;5041875;28;1261;-72
2024/03/16 07:34:57;;;;;;;;;;;18.20;61.10;;;;;;5038356;28;1578;-73
2024/03/16 07:37:23;;;;;;;;;;;18.10;61.00;;;;;;5039470;28;924;-72
2024/03/16 07:39:48;;;;;;;;;;;18.20;61.10;;;;;;5040636;28;1249;-73
2024/03/16 07:42:14;;;;;;;;;;;18.10;61.10;;;;;;5040611;28;965;-74
2024/03/16 07:44:40;;;;;;;;;;;18.10;61.10;;;;;;5046359;28;1930;-72
2024/03/16 07:47:06;;;;;;;;;;;18.10;61.10;;;;;;5046874;28;1638;-77
2024/03/16 07:49:31;;;;;;;;;;;18.10;61.90;;;;;;5031853;28;1314;-79
2024/03/16 07:51:57;;;;;;;;;;;18.10;61.20;;;;;;5044967;28;1330;-75
2024/03/16 07:54:23;;;;;;;;;;;18.10;61.20;;;;;;5039580;28;2127;-79
2024/03/16 07:56:48;;;;;;;;;;;18.10;61.20;;;;;;5032702;28;1377;-79
2024/03/16 07:59:14;;;;;;;;;;;18.10;61.20;;;;;;5046889;28;1431;-74
2024/03/16 08:01:40;;;;;;;;;;;18.10;61.20;;;;;;5038629;28;1895;-71
2024/03/16 08:04:05;;;;;;;;;;;18.10;61.30;;;;;;5040218;28;1841;-72
2024/03/16 08:06:31;;;;;;;;;;;18.10;61.30;;;;;;5056143;28;1985;-73
2024/03/16 08:08:56;;;;;;;;;;;18.10;61.30;;;;;;5040624;28;951;-73
2024/03/16 08:11:22;;;;;;;;;;;18.10;61.40;;;;;;5033317;28;955;-74
2024/03/16 08:13:47;;;;;;;;;;;18.10;61.40;;;;;;5040553;28;1288;-73
2024/03/16 08:16:13;;;;;;;;;;;18.10;61.40;;;;;;5042110;28;1424;-74
2024/03/16 08:18:38;;;;;;;;;;;18.00;61.40;;;;;;5037127;28;1242;-72
2024/03/16 08:21:04;;;;;;;;;;;18.10;61.40;;;;;;5037521;28;1355;-72
2024/03/16 08:23:29;;;;;;;;;;;18.00;61.40;;;;;;5038175;28;1402;-73
2024/03/16 08:25:55;;;;;;;;;;;18.00;61.50;;;;;;5037025;28;1890;-73
2024/03/16 08:28:21;;;;;;;;;;;18.00;61.40;;;;;;5035586;28;1751;-73
2024/03/16 08:30:46;;;;;;;;;;;18.00;61.40;;;;;;5035794;28;1260;-73
2024/03/16 08:33:12;;;;;;;;;;;18.00;61.50;;;;;;5038332;28;1539;-73
2024/03/16 08:35:37;;;;;;;;;;;18.00;61.50;;;;;;5038198;28;1182;-73
2024/03/16 08:38:06;;;;;;;;;;;18.00;61.50;;;;;;5038546;28;1156;-73
2024/03/16 08:40:31;;;;;;;;;;;18.00;61.50;;;;;;5038039;28;1678;-73
2024/03/16 08:42:57;;;;;;;;;;;18.00;61.60;;;;;;5038665;28;1322;-73
2024/03/16 08:45:23;;;;;;;;;;;18.00;61.60;;;;;;5038734;28;1890;-73
2024/03/16 08:47:49;;;;;;;;;;;18.00;61.60;;;;;;5036642;28;1477;-73
2024/03/16 08:50:14;;;;;;;;;;;18.00;61.60;;;;;;5036474;28;1582;-73
2024/03/16 08:52:40;;;;;;;;;;;18.00;61.60;;;;;;5034317;28;1265;-73
2024/03/16 08:55:05;;;;;;;;;;;18.00;61.60;;;;;;5037515;28;1356;-73
2024/03/16 08:57:31;;;;;;;;;;;18.00;61.70;;;;;;5041555;28;1258;-72
2024/03/16 08:59:57;;;;;;;;;;;18.00;61.60;;;;;;5038292;28;1657;-74
2024/03/16 09:02:24;;;;;;;;;;;18.00;61.70;;;;;;5038237;28;1459;-73
2024/03/16 09:04:51;;;;;;;;;;;18.00;61.70;;;;;;5037284;28;1956;-72
2024/03/16 09:07:17;;;;;;;;;;;18.00;61.70;;;;;;5039402;28;1741;-73
2024/03/16 09:09:42;;;;;;;;;;;18.00;61.70;;;;;;5036253;28;1277;-72
2024/03/16 09:12:09;;;;;;;;;;;18.00;61.70;;;;;;5035061;28;1402;-72
2024/03/16 09:14:37;;;;;;;;;;;18.00;61.60;;;;;;5038689;28;1567;-73
2024/03/16 09:17:04;;;;;;;;;;;18.00;61.60;;;;;;5038470;28;1403;-73
2024/03/16 09:19:30;;;;;;;;;;;18.00;61.60;;;;;;5042913;28;1178;-72
2024/03/16 09:21:56;;;;;;;;;;;18.00;61.60;;;;;;5041358;28;1362;-72
2024/03/16 09:24:22;;;;;;;;;;;18.00;61.50;;;;;;5039120;28;1438;-73
2024/03/16 09:26:49;;;;;;;;;;;18.10;61.60;;;;;;5044281;28;1902;-72
2024/03/16 09:29:15;;;;;;;;;;;18.10;61.60;;;;;;5039923;28;1273;-72
2024/03/16 09:31:41;;;;;;;;;;;18.10;61.50;;;;;;5024828;28;1475;-72
2024/03/16 09:34:06;;;;;;;;;;;18.10;61.50;;;;;;5041952;28;1715;-72
2024/03/16 09:36:32;;;;;;;;;;;18.10;61.50;;;;;;5050364;28;1511;-72
2024/03/16 09:38:57;;;;;;;;;;;18.10;61.40;;;;;;5066548;28;1322;-72
2024/03/16 09:41:23;;;;;;;;;;;18.10;61.40;;;;;;5041295;28;2479;-72
2024/03/16 09:43:49;;;;;;;;;;;18.10;61.40;;;;;;5039856;28;1388;-72
2024/03/16 09:46:14;;;;;;;;;;;18.10;61.40;;;;;;5041951;28;1898;-72
2024/03/16 09:48:40;;;;;;;;;;;18.10;61.30;;;;;;5039083;28;938;-72
2024/03/16 09:51:09;;;;;;;;;;;18.10;62.10;;;;;;5026420;28;1151;-72
2024/03/16 09:53:35;;;;;;;;;;;18.10;61.30;;;;;;5039829;28;1276;-72
2024/03/16 09:56:00;;;;;;;;;;;18.10;61.30;;;;;;5041526;28;1487;-72
2024/03/16 09:58:28;;;;;;;;;;;18.20;61.30;;;;;;5040620;28;1149;-72
2024/03/16 10:00:53;;;;;;;;;;;18.10;61.20;;;;;;5040024;28;1428;-72
2024/03/16 10:03:19;;;;;;;;;;;18.10;61.20;;;;;;5039722;28;1351;-72
2024/03/16 10:05:45;;;;;;;;;;;18.10;61.10;;;;;;5047224;28;1898;-72
2024/03/16 10:08:13;;;;;;;;;;;18.10;61.10;;;;;;5042447;28;1259;-72
2024/03/16 10:10:42;;;;;;;;;;;18.10;61.10;;;;;;5043613;28;1473;-72
2024/03/16 10:13:08;;;;;;;;;;;18.10;61.10;;;;;;5038932;28;1470;-72
2024/03/16 10:15:43;;;;;;;;;;;18.10;61.10;;;;;;5037594;28;1317;-72
2024/03/16 10:18:09;;;;;;;;;;;18.10;61.10;;;;;;5040371;28;1395;-72
2024/03/16 10:20:35;;;;;;;;;;;18.20;61.30;;;;;;5036164;28;1384;-73
2024/03/16 10:23:01;;;;;;;;;;;18.20;61.20;;;;;;5047186;28;1379;-73
2024/03/16 10:25:27;;;;;;;;;;;18.10;61.20;;;;;;5024419;28;1967;-72
2024/03/16 10:27:54;;;;;;;;;;;18.10;61.20;;;;;;5039674;28;1039;-73
2024/03/16 10:30:20;;;;;;;;;;;18.10;61.20;;;;;;5041609;28;1224;-72
2024/03/16 10:32:49;;;;;;;;;;;18.10;61.20;;;;;;5038132;28;1255;-72
2024/03/16 10:35:16;;;;;;;;;;;18.10;61.20;;;;;;5048250;28;1140;-72
2024/03/16 10:37:42;;;;;;;;;;;18.10;61.30;;;;;;5027052;28;1341;-73
2024/03/16 10:40:21;;;;;;;;;;;18.10;61.30;;;;;;5035233;28;1633;-73
2024/03/16 10:42:47;;;;;;;;;;;18.10;61.30;;;;;;5038588;28;1410;-73
2024/03/16 10:45:20;;;;;;;;;;;18.10;61.40;;;;;;5041725;28;1906;-73
2024/03/16 10:48:04;;;;;;;;;;;18.10;61.40;;;;;;5039295;28;1145;-73
2024/03/16 10:50:30;;;;;;;;;;;18.10;61.40;;;;;;5055157;28;919;-73
2024/03/16 10:52:56;;;;;;;;;;;18.10;61.40;;;;;;5040056;28;1324;-72
2024/03/16 10:55:24;;;;;;;;;;;18.10;61.40;;;;;;5038955;28;1482;-73
2024/03/16 10:57:50;;;;;;;;;;;18.10;61.40;;;;;;5039446;28;1339;-73
2024/03/16 11:00:25;;;;;;;;;;;18.10;61.50;;;;;;5039604;28;1365;-72
2024/03/16 11:03:00;;;;;;;;;;;18.10;61.50;;;;;;5043465;28;1509;-73
2024/03/16 11:05:35;;;;;;;;;;;18.10;61.40;;;;;;5045782;28;1976;-73
2024/03/16 11:08:04;;;;;;;;;;;18.10;61.40;;;;;;5058492;28;1342;-72
2024/03/16 11:10:40;;;;;;;;;;;18.10;61.40;;;;;;5039791;28;1339;-73
2024/03/16 11:13:10;;;;;;;;;;;18.10;61.40;;;;;;5037378;28;1472;-73
2024/03/16 11:15:38;;;;;;;;;;;18.10;61.40;;;;;;5039781;28;1250;-72
2024/03/16 11:18:28;;;;;;;;;;;18.10;61.40;;;;;;5043574;28;1469;-73
2024/03/16 11:20:54;;;;;;;;;;;18.10;61.30;;;;;;5038418;28;1300;-73
2024/03/16 11:23:19;;;;;;;;;;;18.10;61.30;;;;;;5039846;28;1571;-72
2024/03/16 11:25:45;;;;;;;;;;;18.10;61.30;;;;;;5038790;28;1967;-73
2024/03/16 11:28:11;;;;;;;;;;;18.20;61.30;;;;;;5037396;28;1288;-73
2024/03/16 11:30:37;;;;;;;;;;;18.10;61.20;;;;;;5039974;28;1612;-73
2024/03/16 11:33:14;;;;;;;;;;;18.20;61.30;;;;;;5053153;28;1376;-73
2024/03/16 11:35:40;;;;;;;;;;;18.20;61.20;;;;;;5038404;28;1240;-73
2024/03/16 11:38:12;;;;;;;;;;;18.20;61.20;;;;;;5039585;28;1244;-72
2024/03/16 11:40:40;;;;;;;;;;;18.20;61.20;;;;;;5041515;28;1575;-73
2024/03/16 11:43:14;;;;;;;;;;;18.20;61.20;;;;;;5024090;28;1809;-73
2024/03/16 11:45:47;;;;;;;;;;;18.20;61.20;;;;;;5036661;28;1961;-73
2024/03/16 11:48:12;;;;;;;;;;;18.20;61.20;;;;;;5039572;28;1256;-72
2024/03/16 11:50:39;;;;;;;;;;;18.20;61.10;;;;;;5038116;28;1640;-73
2024/03/16 11:53:06;;;;;;;;;;;18.20;61.10;;;;;;5024026;28;1991;-73
2024/03/16 11:55:32;;;;;;;;;;;18.20;61.10;;;;;;5036287;28;1562;-73
2024/03/16 11:57:58;;;;;;;;;;;18.20;61.90;;;;;;5051947;28;1742;-72
2024/03/16 12:00:24;;;;;;;;;;;18.20;61.20;;;;;;5068232;28;1912;-72
2024/03/16 12:02:50;;;;;;;;;;;18.20;61.20;;;;;;5038060;28;1594;-73
2024/03/16 12:05:16;;;;;;;;;;;18.20;61.20;;;;;;5034810;28;1961;-71
2024/03/16 12:07:44;;;;;;;;;;;18.20;61.20;;;;;;5038271;28;1450;-72
2024/03/16 12:10:10;;;;;;;;;;;18.20;61.20;;;;;;5039615;28;1488;-71
2024/03/16 12:12:38;;;;;;;;;;;18.20;61.20;;;;;;5023585;28;1561;-71
2024/03/16 12:15:17;;;;;;;;;;;18.20;61.20;;;;;;5038112;28;1477;-71
2024/03/16 12:17:46;;;;;;;;;;;18.10;61.20;;;;;;5038497;28;1291;-71
2024/03/16 12:20:11;;;;;;;;;;;18.20;61.30;;;;;;5036488;28;1353;-71
2024/03/16 12:22:41;;;;;;;;;;;18.10;61.20;;;;;;5033076;28;1621;-71
2024/03/16 12:25:07;;;;;;;;;;;18.20;61.40;;;;;;5036438;28;1981;-71
2024/03/16 12:27:33;;;;;;;;;;;18.20;61.40;;;;;;5044753;28;1538;-70
2024/03/16 12:30:03;;;;;;;;;;;18.10;62.10;;;;;;5028892;28;2099;-73
2024/03/16 12:32:29;;;;;;;;;;;18.20;61.40;;;;;;5038751;28;1316;-73
2024/03/16 12:34:54;;;;;;;;;;;18.20;62.10;;;;;;5035801;28;1363;-73
2024/03/16 12:37:20;;;;;;;;;;;18.20;61.40;;;;;;5037888;28;955;-73
2024/03/16 12:39:45;;;;;;;;;;;18.20;61.30;;;;;;5069411;28;1166;-72
2024/03/16 12:42:11;;;;;;;;;;;18.20;61.30;;;;;;5036691;28;1389;-72
2024/03/16 12:44:36;;;;;;;;;;;18.20;61.20;;;;;;5036489;28;1538;-72
2024/03/16 12:47:02;;;;;;;;;;;18.20;61.20;;;;;;5038787;28;1981;-72
2024/03/16 12:49:27;;;;;;;;;;;18.20;61.20;;;;;;5046228;28;1490;-72
2024/03/16 12:51:53;;;;;;;;;;;18.20;61.10;;;;;;5037945;28;1657;-72
2024/03/16 12:54:18;;;;;;;;;;;18.30;61.10;;;;;;5039938;28;1522;-72
2024/03/16 12:56:51;;;;;;;;;;;18.20;61.00;;;;;;5039442;28;1675;-72
2024/03/16 12:59:20;;;;;;;;;;;18.20;61.00;;;;;;5041957;28;1492;-72
2024/03/16 13:01:46;;;;;;;;;;;18.20;60.90;;;;;;5040686;28;1379;-72
2024/03/16 13:04:11;;;;;;;;;;;18.30;61.00;;;;;;5041991;28;1729;-72
2024/03/16 13:06:37;;;;;;;;;;;18.30;60.90;;;;;;5043311;28;1989;-72
2024/03/16 13:09:06;;;;;;;;;;;18.30;60.90;;;;;;5043753;28;1297;-72
2024/03/16 13:11:32;;;;;;;;;;;18.30;60.90;;;;;;5040232;28;1339;-72
2024/03/16 13:13:57;;;;;;;;;;;18.30;60.90;;;;;;5041014;28;1343;-72
2024/03/16 13:16:24;;;;;;;;;;;18.30;60.80;;;;;;5042278;28;1668;-73
2024/03/16 13:18:51;;;;;;;;;;;18.30;60.90;;;;;;5039532;28;1731;-73
2024/03/16 13:21:16;;;;;;;;;;;18.30;60.90;;;;;;5040364;28;1334;-75
2024/03/16 13:23:42;;;;;;;;;;;18.30;60.80;;;;;;5039845;28;1591;-71
2024/03/16 13:26:08;;;;;;;;;;;18.30;60.90;;;;;;5047748;28;1954;-73
2024/03/16 13:28:34;;;;;;;;;;;18.30;60.90;;;;;;5041142;28;1412;-72
2024/03/16 13:30:59;;;;;;;;;;;18.30;60.90;;;;;;5041658;28;1244;-73
2024/03/16 13:33:25;;;;;;;;;;;18.30;60.90;;;;;;5040370;28;1464;-72
2024/03/16 13:35:53;;;;;;;;;;;18.30;61.00;;;;;;5040788;28;1521;-72
2024/03/16 13:38:19;;;;;;;;;;;18.30;61.00;;;;;;5042467;28;1429;-70
2024/03/16 13:40:45;;;;;;;;;;;18.20;60.90;;;;;;5042035;28;1494;-71
2024/03/16 13:43:11;;;;;;;;;;;18.30;61.80;;;;;;5038669;28;1299;-70
2024/03/16 13:45:38;;;;;;;;;;;18.20;61.00;;;;;;5040825;28;1903;-69
2024/03/16 13:48:03;;;;;;;;;;;18.20;61.00;;;;;;5032468;28;1523;-70
2024/03/16 13:50:29;;;;;;;;;;;18.20;61.10;;;;;;5039540;28;1105;-70
2024/03/16 13:52:54;;;;;;;;;;;18.20;61.10;;;;;;5040260;28;1444;-70
2024/03/16 13:55:22;;;;;;;;;;;18.20;61.10;;;;;;5037914;28;1437;-71
2024/03/16 13:57:48;;;;;;;;;;;18.20;61.10;;;;;;5038572;28;2029;-70
2024/03/16 14:00:18;;;;;;;;;;;18.20;61.20;;;;;;5039532;28;1355;-69
2024/03/16 14:02:47;;;;;;;;;;;18.20;61.20;;;;;;5042493;28;1642;-70
2024/03/16 14:05:13;;;;;;;;;;;18.20;61.20;;;;;;5039832;28;1910;-69
2024/03/16 14:07:39;;;;;;;;;;;18.20;61.20;;;;;;5037460;28;2255;-69
2024/03/16 14:10:05;;;;;;;;;;;18.20;61.20;;;;;;5039552;28;1527;-69
2024/03/16 14:12:30;;;;;;;;;;;18.20;61.30;;;;;;5039034;28;1728;-69
2024/03/16 14:14:56;;;;;;;;;;;18.20;61.20;;;;;;5037706;28;1417;-70
2024/03/16 14:17:21;;;;;;;;;;;18.20;61.30;;;;;;5040592;28;1130;-69
2024/03/16 14:19:53;;;;;;;;;;;18.20;61.30;;;;;;5072048;28;1472;-68
2024/03/16 14:22:22;;;;;;;;;;;18.20;61.20;;;;;;5070455;28;1413;-69
2024/03/16 14:24:50;;;;;;;;;;;18.20;61.30;;;;;;5035861;28;1934;-69
2024/03/16 14:27:16;;;;;;;;;;;18.20;61.20;;;;;;5040133;28;1581;-69
2024/03/16 14:29:41;;;;;;;;;;;18.20;61.20;;;;;;5041311;28;1287;-70
2024/03/16 14:32:07;;;;;;;;;;;18.20;61.20;;;;;;5036439;28;1419;-70